Time;durP1;ratioP1;P1;durP2;ratioP2;P2;SDS_P1;SDS_P2;PMS_P1;PMS_P2;Temp;Humidity;BMP_temperature;BMP_pressure;BME280_temperature;BME280_humidity;BME280_pressure;Samples;Min_cycle;Max_cycle;Signal;HPM_P1;HPM_P2
2022/09/08 00:02:24;;;;;;;1.75;0.70;;;24.80;65.60;;;;;;5033758;28;20077;-79
2022/09/08 00:04:50;;;;;;;3.13;0.90;;;24.80;66.30;;;;;;5033694;28;20029;-79
2022/09/08 00:07:16;;;;;;;2.05;0.68;;;24.80;65.60;;;;;;5033596;28;20535;-80
2022/09/08 00:09:42;;;;;;;3.13;0.70;;;24.90;65.50;;;;;;5033507;28;20037;-79
2022/09/08 00:12:09;;;;;;;3.97;0.68;;;24.90;65.40;;;;;;5033561;28;20036;-79
2022/09/08 00:14:35;;;;;;;2.53;0.80;;;25.00;66.00;;;;;;5033513;28;20028;-79
2022/09/08 00:17:02;;;;;;;2.55;0.80;;;25.00;65.30;;;;;;5033778;28;20057;-79
2022/09/08 00:19:28;;;;;;;2.75;0.93;;;25.00;65.20;;;;;;5033464;28;20026;-79
2022/09/08 00:21:54;;;;;;;3.83;0.80;;;25.00;65.30;;;;;;5033574;28;20034;-79
2022/09/08 00:24:19;;;;;;;5.50;1.73;;;25.00;65.30;;;;;;5033505;28;20535;-79
2022/09/08 00:26:45;;;;;;;2.33;0.82;;;25.00;66.00;;;;;;5033233;28;20056;-79
2022/09/08 00:29:11;;;;;;;6.03;1.00;;;24.90;66.40;;;;;;5033315;28;20583;-79
2022/09/08 00:31:41;;;;;;;3.40;0.70;;;24.70;67.10;;;;;;5033409;28;20075;-79
2022/09/08 00:34:08;;;;;;;1.02;0.57;;;24.60;67.10;;;;;;5033040;28;20823;-79
2022/09/08 00:36:37;;;;;;;2.80;0.73;;;24.60;67.00;;;;;;5033322;28;20044;-79
2022/09/08 00:39:03;;;;;;;2.53;0.55;;;24.60;67.00;;;;;;5033143;28;20436;-78
2022/09/08 00:41:29;;;;;;;1.40;0.38;;;24.60;66.90;;;;;;5033005;28;20032;-79
2022/09/08 00:44:00;;;;;;;1.35;0.40;;;24.70;66.90;;;;;;5033027;28;20466;-79
2022/09/08 00:46:33;;;;;;;1.98;0.93;;;24.70;66.80;;;;;;5032609;28;20412;-79
2022/09/08 00:49:10;;;;;;;2.83;0.57;;;24.70;66.80;;;;;;5033265;28;20448;-79
2022/09/08 00:51:41;;;;;;;2.30;0.73;;;24.80;66.90;;;;;;5033061;28;20026;-79
2022/09/08 00:54:09;;;;;;;2.45;1.00;;;24.80;66.80;;;;;;5033103;28;20036;-79
2022/09/08 00:56:35;;;;;;;5.18;1.38;;;24.80;67.30;;;;;;5033103;28;20053;-79
2022/09/08 00:59:01;;;;;;;1.80;0.47;;;24.70;67.50;;;;;;5032788;28;20053;-80
2022/09/08 01:01:28;;;;;;;2.00;0.60;;;24.70;67.50;;;;;;5033091;28;20036;-80
2022/09/08 01:03:55;;;;;;;4.28;0.90;;;24.70;67.30;;;;;;5032844;28;20086;-79
2022/09/08 01:15:05;;;;;;;2.10;0.50;;;24.60;68.50;;;;;;5032708;28;20028;-79
2022/09/08 01:17:34;;;;;;;1.88;0.50;;;24.50;68.40;;;;;;5032793;28;20057;-80
2022/09/08 01:20:02;;;;;;;1.75;0.50;;;24.50;68.20;;;;;;5032851;28;20022;-80
2022/09/08 01:23:02;;;;;;;2.45;0.60;;;24.60;68.30;;;;;;5032523;28;20500;-79
2022/09/08 01:26:01;;;;;;;2.50;0.60;;;24.60;68.30;;;;;;5032525;28;20432;-79
2022/09/08 01:28:51;;;;;;;3.50;0.98;;;24.50;71.10;;;;;;5032711;28;20037;-79
2022/09/08 01:31:18;;;;;;;2.58;0.52;;;24.30;71.00;;;;;;5028878;28;20584;-79
2022/09/08 01:33:44;;;;;;;2.35;0.55;;;24.20;71.20;;;;;;5032483;28;20040;-79
2022/09/08 01:36:13;;;;;;;2.15;0.77;;;24.20;71.20;;;;;;5032448;28;20064;-79
2022/09/08 01:38:39;;;;;;;1.27;0.30;;;24.30;71.30;;;;;;5032822;28;20026;-79
2022/09/08 01:41:05;;;;;;;2.95;0.70;;;24.20;70.60;;;;;;5032308;28;20028;-79
2022/09/08 01:43:31;;;;;;;1.23;0.32;;;24.20;71.30;;;;;;5032444;28;20436;-80
2022/09/08 01:45:57;;;;;;;2.63;0.60;;;24.20;70.90;;;;;;5032459;28;20025;-79
2022/09/08 01:48:23;;;;;;;5.10;1.40;;;24.20;70.60;;;;;;5032303;28;20029;-79
2022/09/08 01:50:57;;;;;;;3.22;0.80;;;24.20;71.60;;;;;;5032321;28;20026;-79
2022/09/08 01:53:23;;;;;;;3.03;1.00;;;24.10;72.90;;;;;;5032493;28;20041;-79
2022/09/08 01:55:48;;;;;;;2.10;0.50;;;24.00;74.00;;;;;;5032468;28;20106;-80
2022/09/08 01:58:14;;;;;;;1.98;0.47;;;23.80;73.50;;;;;;5033957;28;20053;-80
2022/09/08 02:00:41;;;;;;;6.28;1.20;;;23.80;73.50;;;;;;5035843;28;20411;-80
2022/09/08 02:03:07;;;;;;;5.18;0.70;;;23.80;73.40;;;;;;5035730;28;20101;-80
2022/09/08 02:05:40;;;;;;;2.22;0.40;;;23.80;74.20;;;;;;5035889;28;20060;-80
2022/09/08 02:08:07;;;;;;;2.17;0.50;;;23.80;73.60;;;;;;5035409;28;20032;-79
2022/09/08 02:10:32;;;;;;;2.00;0.52;;;23.70;73.90;;;;;;5035936;28;20040;-80
2022/09/08 02:12:58;;;;;;;1.25;0.30;;;23.70;74.20;;;;;;5035568;28;20041;-80
2022/09/08 02:15:24;;;;;;;5.38;1.20;;;23.70;73.90;;;;;;5035729;28;20144;-80
2022/09/08 02:17:50;;;;;;;3.20;0.80;;;23.70;75.70;;;;;;5035614;28;20022;-81
2022/09/08 02:20:16;;;;;;;1.33;0.60;;;23.60;76.40;;;;;;5035972;28;20481;-80
2022/09/08 02:22:42;;;;;;;3.42;0.65;;;23.40;75.90;;;;;;5035713;28;20037;-79
2022/09/08 02:25:08;;;;;;;2.25;0.57;;;23.40;75.90;;;;;;5035661;28;20028;-80
2022/09/08 02:27:34;;;;;;;3.53;0.88;;;23.40;75.80;;;;;;5035447;28;20053;-79
2022/09/08 02:29:59;;;;;;;2.05;0.40;;;23.40;75.40;;;;;;5035135;28;20028;-80
2022/09/08 02:32:25;;;;;;;1.95;0.50;;;23.40;75.10;;;;;;5035512;28;20105;-80
2022/09/08 02:34:52;;;;;;;2.15;0.60;;;23.50;74.80;;;;;;5035594;28;20454;-80
2022/09/08 02:37:18;;;;;;;3.83;0.77;;;23.50;75.10;;;;;;5035497;28;20039;-79
2022/09/08 02:39:44;;;;;;;3.28;0.43;;;23.50;74.80;;;;;;5035370;28;20440;-79
2022/09/08 02:42:10;;;;;;;1.48;0.38;;;23.50;74.80;;;;;;5035354;28;20022;-78
2022/09/08 02:44:36;;;;;;;2.65;0.40;;;23.60;74.80;;;;;;5034897;28;20033;-78
2022/09/08 02:47:01;;;;;;;1.90;0.38;;;23.60;74.50;;;;;;5035106;28;20025;-79
2022/09/08 02:49:27;;;;;;;2.38;0.65;;;23.70;74.20;;;;;;5034958;28;20053;-79
2022/09/08 02:51:53;;;;;;;2.63;0.73;;;23.70;74.30;;;;;;5034991;28;20377;-79
2022/09/08 02:54:19;;;;;;;3.42;0.57;;;23.70;74.60;;;;;;5034975;28;20021;-80
2022/09/08 02:56:44;;;;;;;3.13;0.82;;;23.70;74.40;;;;;;5034682;28;20049;-79
2022/09/08 02:59:10;;;;;;;2.58;0.50;;;23.70;74.70;;;;;;5034498;28;20048;-80
2022/09/08 03:01:36;;;;;;;1.95;0.30;;;23.60;74.50;;;;;;5035065;28;20029;-80
2022/09/08 03:04:01;;;;;;;2.63;0.68;;;23.60;74.30;;;;;;5034599;28;20477;-80
2022/09/08 03:06:27;;;;;;;4.13;0.98;;;23.70;74.40;;;;;;5034879;28;20477;-81
2022/09/08 03:08:53;;;;;;;2.10;0.43;;;23.60;74.50;;;;;;5034215;28;20026;-80
2022/09/08 03:11:18;;;;;;;2.30;0.75;;;23.60;75.00;;;;;;5034949;28;20034;-80
2022/09/08 03:13:44;;;;;;;2.35;0.75;;;23.60;74.80;;;;;;5034325;28;20048;-80
2022/09/08 03:16:10;;;;;;;1.35;0.80;;;23.50;75.30;;;;;;5034301;28;20029;-81
2022/09/08 03:18:35;;;;;;;1.67;0.38;;;23.50;75.30;;;;;;5034573;28;20033;-81
2022/09/08 03:21:08;;;;;;;1.98;0.30;;;23.50;75.20;;;;;;5034343;28;20045;-81
2022/09/08 03:23:34;;;;;;;1.35;0.30;;;23.50;74.90;;;;;;5034202;28;20029;-80
2022/09/08 03:26:13;;;;;;;1.30;0.20;;;23.60;74.80;;;;;;5034004;28;20051;-80
2022/09/08 03:28:40;;;;;;;3.78;0.70;;;23.60;74.60;;;;;;5034442;28;20029;-82
2022/09/08 03:31:07;;;;;;;4.00;0.70;;;23.70;74.60;;;;;;5033985;28;20022;-80
2022/09/08 03:33:33;;;;;;;2.83;0.80;;;23.60;74.60;;;;;;5033936;28;20038;-80
2022/09/08 03:36:00;;;;;;;1.85;0.50;;;23.60;75.00;;;;;;5033889;28;20104;-80
2022/09/08 03:38:26;;;;;;;1.88;0.40;;;23.60;74.80;;;;;;5034011;28;20029;-80
2022/09/08 03:40:51;;;;;;;1.60;0.28;;;23.60;74.80;;;;;;5033927;28;20067;-80
2022/09/08 03:43:17;;;;;;;1.60;0.30;;;23.60;74.60;;;;;;5034110;28;20021;-81
2022/09/08 03:45:44;;;;;;;1.08;0.28;;;23.60;74.40;;;;;;5033803;28;20164;-81
2022/09/08 03:48:11;;;;;;;2.10;0.65;;;23.70;74.20;;;;;;5033600;28;20078;-81
2022/09/08 03:50:37;;;;;;;2.03;0.47;;;23.80;74.30;;;;;;5033819;28;20384;-80
2022/09/08 03:53:03;;;;;;;1.58;0.40;;;23.80;74.30;;;;;;5033784;28;20033;-80
2022/09/08 03:55:28;;;;;;;1.20;0.50;;;23.70;74.20;;;;;;5033923;28;20048;-80
2022/09/08 03:57:55;;;;;;;3.08;0.40;;;23.80;74.10;;;;;;5033876;28;20025;-80
2022/09/08 04:00:20;;;;;;;2.30;0.50;;;23.80;74.00;;;;;;5033803;28;20022;-81
2022/09/08 04:02:46;;;;;;;2.15;0.55;;;23.80;74.50;;;;;;5033687;28;20037;-81
2022/09/08 04:05:11;;;;;;;1.52;0.30;;;23.80;74.50;;;;;;5033771;28;20029;-81
2022/09/08 04:07:38;;;;;;;2.38;0.40;;;23.80;74.40;;;;;;5033683;28;20436;-80
2022/09/08 04:10:05;;;;;;;3.38;0.40;;;23.80;74.20;;;;;;5033356;28;20044;-80
2022/09/08 04:12:31;;;;;;;1.17;0.30;;;23.80;74.20;;;;;;5033596;28;20095;-80
2022/09/08 04:14:57;;;;;;;1.95;0.50;;;23.80;74.10;;;;;;5033714;28;20412;-80
2022/09/08 04:17:23;;;;;;;2.03;0.50;;;23.80;74.10;;;;;;5033104;28;20425;-80
2022/09/08 04:19:51;;;;;;;3.88;1.00;;;23.80;74.20;;;;;;5033097;28;20028;-80
2022/09/08 04:22:18;;;;;;;2.80;0.70;;;23.70;75.30;;;;;;5033130;28;20030;-80
2022/09/08 04:24:45;;;;;;;3.97;0.80;;;23.50;76.50;;;;;;5033152;28;20486;-80
2022/09/08 04:27:11;;;;;;;2.85;0.63;;;23.40;75.90;;;;;;5032855;28;20612;-80
2022/09/08 04:29:38;;;;;;;3.03;1.00;;;23.20;76.40;;;;;;5033375;28;20030;-80
2022/09/08 04:32:04;;;;;;;4.18;0.90;;;23.10;76.40;;;;;;5033106;28;20056;-80
2022/09/08 04:34:30;;;;;;;5.85;0.82;;;23.00;76.60;;;;;;5033243;28;20041;-80
2022/09/08 04:36:56;;;;;;;1.70;0.60;;;23.00;77.00;;;;;;5032935;28;20111;-80
2022/09/08 04:39:21;;;;;;;3.03;1.45;;;22.90;77.50;;;;;;5033260;28;20031;-80
2022/09/08 04:41:47;;;;;;;3.40;1.30;;;22.70;78.00;;;;;;5033244;28;20488;-80
2022/09/08 04:44:13;;;;;;;2.85;1.30;;;22.60;79.10;;;;;;5033082;28;20107;-79
2022/09/08 04:46:39;;;;;;;3.60;1.05;;;22.40;79.40;;;;;;5032784;28;20017;-79
2022/09/08 04:49:05;;;;;;;4.93;0.90;;;22.20;79.70;;;;;;5032860;28;20436;-80
2022/09/08 04:51:31;;;;;;;5.90;1.48;;;22.00;80.20;;;;;;5032783;28;20033;-78
2022/09/08 04:53:58;;;;;;;3.72;1.10;;;21.80;80.80;;;;;;5033038;28;20030;-79
2022/09/08 04:56:28;;;;;;;3.40;1.27;;;21.70;81.10;;;;;;5033063;28;20103;-79
2022/09/08 04:58:55;;;;;;;2.10;0.50;;;21.60;81.30;;;;;;5032396;28;20543;-79
2022/09/08 05:01:29;;;;;;;1.60;0.40;;;21.60;81.80;;;;;;5032864;28;20033;-79
2022/09/08 05:03:59;;;;;;;2.65;0.70;;;21.60;81.90;;;;;;5032720;28;20095;-79
2022/09/08 05:06:25;;;;;;;4.75;1.17;;;21.70;82.00;;;;;;5032451;28;20029;-79
2022/09/08 05:08:52;;;;;;;3.85;0.90;;;21.60;82.00;;;;;;5032599;28;20090;-79
2022/09/08 05:11:19;;;;;;;5.40;1.27;;;21.70;81.90;;;;;;5032627;28;20026;-80
2022/09/08 05:13:45;;;;;;;4.90;1.33;;;21.70;82.20;;;;;;5032522;28;20041;-79
2022/09/08 05:16:13;;;;;;;3.55;1.42;;;21.60;82.40;;;;;;5032589;28;20128;-79
2022/09/08 05:18:39;;;;;;;2.15;0.80;;;21.50;82.80;;;;;;5032262;28;20033;-79
2022/09/08 05:21:06;;;;;;;7.75;1.92;;;21.50;82.90;;;;;;5032434;28;20026;-79
2022/09/08 05:23:33;;;;;;;5.00;1.38;;;21.40;83.40;;;;;;5032621;28;20107;-79
2022/09/08 05:26:06;;;;;;;5.20;0.70;;;21.30;83.90;;;;;;5032328;28;20040;-79
2022/09/08 05:28:35;;;;;;;2.83;0.93;;;21.30;84.10;;;;;;5032155;28;20025;-79
2022/09/08 05:31:01;;;;;;;2.15;0.40;;;21.40;83.80;;;;;;5032283;28;20029;-79
2022/09/08 05:33:27;;;;;;;1.60;0.32;;;21.60;83.40;;;;;;5035835;28;20140;-79
2022/09/08 05:35:53;;;;;;;2.42;0.40;;;21.80;83.10;;;;;;5036409;28;20033;-80
2022/09/08 05:38:19;;;;;;;2.17;0.40;;;21.90;82.60;;;;;;5036373;28;20025;-80
2022/09/08 05:40:45;;;;;;;3.25;0.60;;;22.10;82.30;;;;;;5035932;28;20023;-80
2022/09/08 05:43:11;;;;;;;1.42;0.40;;;22.20;81.90;;;;;;5036148;28;20381;-80
2022/09/08 05:45:36;;;;;;;2.08;0.93;;;22.30;81.60;;;;;;5035953;28;20018;-80
2022/09/08 05:48:03;;;;;;;4.93;1.70;;;22.40;81.20;;;;;;5035702;28;20088;-80
2022/09/08 05:50:34;;;;;;;6.00;2.10;;;22.40;80.90;;;;;;5035810;28;20056;-80
2022/09/08 05:53:01;;;;;;;5.88;2.00;;;22.30;81.00;;;;;;5035745;28;20551;-80
2022/09/08 05:55:28;;;;;;;4.45;2.58;;;22.20;81.40;;;;;;5035729;28;20028;-79
2022/09/08 05:57:53;;;;;;;3.85;1.30;;;22.00;82.00;;;;;;5036095;28;20026;-79
2022/09/08 06:00:19;;;;;;;5.32;2.78;;;21.80;82.30;;;;;;5035858;28;20380;-79
2022/09/08 06:02:51;;;;;;;6.38;3.00;;;21.60;83.00;;;;;;5035566;28;20022;-78
2022/09/08 06:05:18;;;;;;;7.65;2.80;;;21.50;83.70;;;;;;5035520;28;20028;-79
2022/09/08 06:07:44;;;;;;;5.72;1.65;;;21.40;84.20;;;;;;5035816;28;20064;-79
2022/09/08 06:10:09;;;;;;;5.18;1.67;;;21.30;84.50;;;;;;5035755;28;20017;-79
2022/09/08 06:12:35;;;;;;;6.13;3.70;;;21.20;84.80;;;;;;5035395;28;20065;-79
2022/09/08 06:15:01;;;;;;;6.18;2.83;;;21.20;85.00;;;;;;5035833;28;20036;-79
2022/09/08 06:17:26;;;;;;;7.45;3.60;;;21.10;85.30;;;;;;5035558;28;20032;-78
2022/09/08 06:19:52;;;;;;;3.85;1.48;;;21.00;85.70;;;;;;5035600;28;20108;-78
2022/09/08 06:22:17;;;;;;;6.22;2.60;;;21.00;85.90;;;;;;5035000;28;20481;-79
2022/09/08 06:24:43;;;;;;;11.60;4.05;;;20.90;86.30;;;;;;5035154;28;20029;-79
2022/09/08 06:27:08;;;;;;;7.65;3.08;;;20.90;86.40;;;;;;5034616;28;20037;-80
2022/09/08 06:29:58;;;;;;;3.50;1.98;;;20.90;86.70;;;;;;5035068;28;20053;-79
2022/09/08 06:32:37;;;;;;;4.15;1.40;;;20.80;86.90;;;;;;5035310;28;20119;-79
2022/09/08 06:35:10;;;;;;;9.38;3.88;;;20.90;86.90;;;;;;5035461;28;20040;-78
2022/09/08 06:37:59;;;;;;;5.63;1.83;;;20.90;87.00;;;;;;5035057;28;20025;-78
2022/09/08 06:40:41;;;;;;;3.35;0.80;;;20.80;87.10;;;;;;5035369;28;20351;-79
2022/09/08 06:43:38;;;;;;;7.30;2.25;;;20.90;87.30;;;;;;5034600;28;20021;-79
2022/09/08 06:46:15;;;;;;;5.85;2.00;;;20.90;87.10;;;;;;5035220;28;20029;-79
2022/09/08 06:48:41;;;;;;;5.10;1.88;;;21.00;87.00;;;;;;5035115;28;20028;-79
2022/09/08 06:51:18;;;;;;;5.43;2.45;;;20.90;87.00;;;;;;5034997;28;20104;-79
2022/09/08 06:54:10;;;;;;;4.95;1.45;;;21.00;87.30;;;;;;5034642;28;20033;-79
2022/09/08 06:57:00;;;;;;;6.72;2.20;;;21.00;87.10;;;;;;5034510;28;20028;-79
2022/09/08 06:59:53;;;;;;;6.25;2.10;;;21.10;87.10;;;;;;5034939;28;20083;-81
2022/09/08 07:02:56;;;;;;;5.10;1.85;;;21.10;87.20;;;;;;5034671;28;20432;-81
2022/09/08 07:05:52;;;;;;;5.10;2.78;;;21.00;87.10;;;;;;5034701;28;20060;-79
2022/09/08 07:08:27;;;;;;;3.17;1.45;;;21.00;87.10;;;;;;5034606;28;20120;-79
2022/09/08 07:10:59;;;;;;;6.05;1.83;;;20.90;87.10;;;;;;5034703;28;20029;-79
2022/09/08 07:13:40;;;;;;;;;;;20.90;87.50;;;;;;5034606;28;20099;-79
2022/09/08 07:16:17;;;;;;;5.82;1.92;;;20.90;87.50;;;;;;5034167;28;19905;-79
2022/09/08 07:19:02;;;;;;;7.63;3.15;;;21.00;87.90;;;;;;5034402;28;20032;-80
2022/09/08 07:21:53;;;;;;;6.50;2.72;;;21.10;87.80;;;;;;5034507;28;20056;-81
2022/09/08 07:24:23;;;;;;;6.32;2.30;;;21.00;87.70;;;;;;5034709;28;20075;-81
2022/09/08 07:26:59;;;;;;;4.95;1.10;;;21.00;87.70;;;;;;5034303;28;20052;-81
2022/09/08 07:29:39;;;;;;;4.38;1.33;;;21.10;88.40;;;;;;5034366;28;20037;-80
2022/09/08 07:32:11;;;;;;;4.45;1.55;;;21.10;88.60;;;;;;5034148;28;20065;-80
2022/09/08 07:34:39;;;;;;;;;;;21.20;89.50;;;;;;5034864;28;20017;-78
2022/09/08 07:37:17;;;;;;;4.40;1.80;;;21.30;88.50;;;;;;5033951;28;20372;-76
2022/09/08 07:39:55;;;;;;;2.70;0.95;;;21.20;88.20;;;;;;5033959;28;20104;-76
2022/09/08 07:42:21;;;;;;;3.97;1.80;;;21.30;88.40;;;;;;5033922;28;20056;-76
2022/09/08 07:44:54;;;;;;;4.47;2.92;;;21.40;88.30;;;;;;5033370;28;20469;-77
2022/09/08 07:47:50;;;;;;;5.00;2.00;;;21.50;87.90;;;;;;5033231;28;20025;-77
2022/09/08 07:53:31;;;;;;;4.25;1.60;;;21.50;87.00;;;;;;5033166;28;20524;-77
2022/09/08 07:56:07;;;;;;;4.78;2.53;;;21.50;86.90;;;;;;5032897;28;20026;-77
2022/09/08 07:58:42;;;;;;;5.68;1.80;;;21.50;86.70;;;;;;5038001;28;20455;-75
2022/09/08 08:01:20;;;;;;;4.70;1.58;;;21.30;87.20;;;;;;5056186;28;20055;-74
2022/09/08 08:03:58;;;;;;;4.68;1.55;;;21.30;87.60;;;;;;5051610;28;20032;-74
2022/09/08 08:06:48;;;;;;;3.78;1.73;;;21.30;87.90;;;;;;5037495;28;20548;-73
2022/09/08 08:09:44;;;;;;;2.38;1.08;;;21.40;87.80;;;;;;5035660;28;20029;-74
2022/09/08 08:12:47;;;;;;;4.63;2.03;;;21.30;88.10;;;;;;5041490;28;20021;-75
2022/09/08 08:15:20;;;;;;;4.53;2.00;;;21.30;88.30;;;;;;5041523;28;20734;-75
2022/09/08 08:18:08;;;;;;;3.42;1.70;;;21.30;88.30;;;;;;5036040;28;20029;-76
2022/09/08 08:20:55;;;;;;;3.83;1.50;;;21.30;88.40;;;;;;5040200;28;20488;-74
2022/09/08 08:23:21;;;;;;;3.17;1.55;;;21.30;88.70;;;;;;5036234;28;20317;-74
2022/09/08 08:26:07;;;;;;;4.03;2.00;;;21.30;88.80;;;;;;5042401;28;20052;-73
2022/09/08 08:28:41;;;;;;;7.07;2.03;;;21.30;88.30;;;;;;5036507;28;20444;-75
2022/09/08 08:31:29;;;;;;;4.93;2.88;;;21.20;88.70;;;;;;5037222;28;20414;-74
2022/09/08 08:34:05;;;;;;;3.13;2.45;;;21.10;89.10;;;;;;5040823;28;20381;-74
2022/09/08 08:36:36;;;;;;;3.90;2.85;;;20.90;89.20;;;;;;5039190;28;20025;-73
2022/09/08 08:39:13;;;;;;;4.20;2.20;;;20.80;89.50;;;;;;5039484;28;20110;-74
2022/09/08 08:42:00;;;;;;;7.78;2.58;;;20.90;90.10;;;;;;5039009;28;20503;-73
2022/09/08 08:44:42;;;;;;;3.38;1.95;;;20.90;90.10;;;;;;5043211;28;20032;-72
2022/09/08 08:47:40;;;;;;;3.00;1.63;;;21.00;90.10;;;;;;5041424;28;20539;-72
2022/09/08 08:50:21;;;;;;;4.45;1.95;;;21.10;90.00;;;;;;5037630;28;20060;-73
2022/09/08 08:53:34;;;;;;;4.35;2.33;;;21.20;89.90;;;;;;5038504;28;20441;-72
2022/09/08 08:56:09;;;;;;;4.93;2.60;;;21.20;90.00;;;;;;5004050;28;20441;-73
2022/09/08 08:58:56;;;;;;;4.32;2.25;;;21.20;90.00;;;;;;5040847;28;20072;-74
2022/09/08 09:02:00;;;;;;;5.70;2.88;;;21.30;90.10;;;;;;5038324;28;20030;-73
2022/09/08 09:04:52;;;;;;;5.20;2.78;;;21.20;90.50;;;;;;5025113;28;20446;-73
2022/09/08 09:07:55;;;;;;;4.63;2.97;;;21.20;90.90;;;;;;5037680;28;20037;-73
2022/09/08 09:10:39;;;;;;;;;;;21.10;90.20;;;;;;5048191;28;20097;-75
2022/09/08 09:13:05;;;;;;;4.72;3.10;;;21.00;90.30;;;;;;5045140;28;19923;-73
2022/09/08 09:15:46;;;;;;;7.10;2.95;;;21.00;90.40;;;;;;5045770;28;20028;-73
2022/09/08 09:18:49;;;;;;;4.68;3.00;;;21.10;91.00;;;;;;5041032;28;20036;-74
2022/09/08 09:21:30;;;;;;;5.63;2.83;;;21.20;92.20;;;;;;5039806;28;20045;-74
2022/09/08 09:24:07;;;;;;;6.28;2.65;;;21.30;91.80;;;;;;5056436;28;20423;-74
2022/09/08 09:26:34;;;;;;;6.28;2.33;;;21.30;91.30;;;;;;5066330;28;20049;-73
2022/09/08 09:29:24;;;;;;;4.93;2.88;;;21.40;90.70;;;;;;5067437;28;20036;-73
2022/09/08 09:32:05;;;;;;;6.32;2.80;;;21.40;90.70;;;;;;5063263;28;20037;-75
2022/09/08 09:34:36;;;;;;;5.80;2.72;;;21.30;90.50;;;;;;5058302;28;20029;-75
2022/09/08 09:37:24;;;;;;;4.38;2.50;;;21.20;91.00;;;;;;5058043;28;20048;-71
2022/09/08 09:40:22;;;;;;;5.82;2.92;;;21.20;90.60;;;;;;5056577;28;20033;-73
2022/09/08 09:42:57;;;;;;;5.97;2.88;;;21.20;90.70;;;;;;5055726;28;20249;-72
2022/09/08 09:45:41;;;;;;;5.18;2.55;;;21.10;90.70;;;;;;5058241;28;20028;-74
2022/09/08 09:48:35;;;;;;;5.20;3.38;;;21.00;90.80;;;;;;5058813;28;20544;-75
2022/09/08 09:51:04;;;;;;;6.70;3.13;;;21.10;91.30;;;;;;5039782;28;20536;-77
2022/09/08 09:53:41;;;;;;;6.78;3.42;;;21.10;90.90;;;;;;5055875;28;20048;-76
2022/09/08 09:56:09;;;;;;;3.38;2.20;;;21.00;90.10;;;;;;5046633;28;20017;-75
2022/09/08 09:58:53;;;;;;;6.05;2.90;;;21.00;90.30;;;;;;5040888;28;20049;-75
2022/09/08 10:01:57;;;;;;;5.93;2.90;;;21.00;90.70;;;;;;5037530;28;20111;-75
2022/09/08 10:04:44;;;;;;;8.32;2.53;;;21.00;90.70;;;;;;5040624;28;20029;-75
2022/09/08 10:07:22;;;;;;;5.20;1.92;;;21.00;90.20;;;;;;5044759;28;20018;-75
2022/09/08 10:10:25;;;;;;;5.47;2.33;;;21.00;90.00;;;;;;5040828;28;20040;-75
2022/09/08 10:13:19;;;;;;;5.05;2.42;;;21.00;88.90;;;;;;5039370;28;20045;-74
2022/09/08 10:16:05;;;;;;;6.80;2.00;;;20.90;89.10;;;;;;5039835;28;20069;-73
2022/09/08 10:18:48;;;;;;;4.55;2.40;;;20.80;90.10;;;;;;5036453;28;20029;-75
2022/09/08 10:21:36;;;;;;;6.95;2.60;;;21.00;90.80;;;;;;5041610;28;20053;-76
2022/09/08 10:24:23;;;;;;;5.45;1.75;;;21.10;91.10;;;;;;5040624;28;20028;-76
2022/09/08 10:26:51;;;;;;;5.50;2.60;;;21.20;90.90;;;;;;5039133;28;20500;-75
2022/09/08 10:29:36;;;;;;;5.90;2.70;;;21.40;90.30;;;;;;5044780;28;20123;-75
2022/09/08 10:32:34;;;;;;;5.93;2.70;;;21.40;88.40;;;;;;5057455;28;20029;-75
2022/09/08 10:35:18;;;;;;;4.93;2.00;;;21.30;87.80;;;;;;5054062;28;20135;-75
2022/09/08 10:37:59;;;;;;;5.82;2.53;;;21.20;88.10;;;;;;5055490;28;20025;-77
2022/09/08 10:40:37;;;;;;;4.22;2.28;;;21.20;88.40;;;;;;5049629;28;20060;-77
2022/09/08 10:43:18;;;;;;;4.63;2.20;;;21.20;88.10;;;;;;5058633;28;20025;-76
2022/09/08 10:45:55;;;;;;;5.65;2.60;;;21.10;87.90;;;;;;5057764;28;20460;-74
2022/09/08 10:48:40;;;;;;;4.18;2.38;;;21.10;89.20;;;;;;5055352;28;20479;-72
2022/09/08 10:51:18;;;;;;;4.30;2.00;;;21.10;88.70;;;;;;5060528;28;20388;-74
2022/09/08 10:54:08;;;;;;;4.20;1.63;;;21.10;87.50;;;;;;5046160;28;20178;-73
2022/09/08 10:56:37;;;;;;;5.40;1.80;;;21.10;88.00;;;;;;5039107;28;20025;-74
2022/09/08 10:59:24;;;;;;;2.22;1.40;;;21.00;87.80;;;;;;5040487;28;20028;-75
2022/09/08 11:02:05;;;;;;;3.00;1.30;;;21.00;87.10;;;;;;5036856;28;20120;-78
2022/09/08 11:04:59;;;;;;;5.35;1.55;;;20.90;87.20;;;;;;5039705;28;20032;-74
2022/09/08 11:07:43;;;;;;;3.70;1.50;;;20.90;88.60;;;;;;5035053;28;20397;-74
2022/09/08 11:10:21;;;;;;;3.45;1.25;;;21.00;87.80;;;;;;5042316;28;20024;-73
2022/09/08 11:13:19;;;;;;;3.08;1.35;;;21.10;86.80;;;;;;5037885;28;20080;-74
2022/09/08 11:16:00;;;;;;;4.50;1.42;;;21.20;86.00;;;;;;5036780;28;20028;-75
2022/09/08 11:18:38;;;;;;;3.28;0.95;;;21.20;86.80;;;;;;5053404;28;20894;-74
2022/09/08 11:21:15;;;;;;;3.45;1.23;;;21.20;86.10;;;;;;5053555;28;20498;-73
2022/09/08 11:24:18;;;;;;;3.47;0.80;;;21.30;86.90;;;;;;5062671;28;20032;-76
2022/09/08 11:26:51;;;;;;;5.30;1.40;;;21.30;85.60;;;;;;5055129;28;20052;-73
2022/09/08 11:29:17;;;;;;;4.75;0.93;;;21.30;83.70;;;;;;5062023;28;20123;-74
2022/09/08 11:32:07;;;;;;;5.13;1.25;;;21.20;83.20;;;;;;5057441;28;20119;-75
2022/09/08 11:34:53;;;;;;;4.43;0.70;;;21.10;83.60;;;;;;5071291;28;20049;-72
2022/09/08 11:37:48;;;;;;;5.40;0.85;;;21.20;83.50;;;;;;5073715;28;20023;-73
2022/09/08 11:40:32;;;;;;;3.75;0.85;;;21.40;83.40;;;;;;5064611;28;20024;-75
2022/09/08 11:43:06;;;;;;;24.60;4.78;;;21.60;85.00;;;;;;5064100;28;20103;-75
2022/09/08 11:45:53;;;;;;;24.45;4.03;;;21.70;85.10;;;;;;5061890;28;20360;-75
2022/09/08 11:48:39;;;;;;;3.42;0.70;;;21.90;84.40;;;;;;5055935;28;20021;-75
2022/09/08 11:51:23;;;;;;;3.25;0.50;;;22.00;79.80;;;;;;5052344;28;20121;-74
2022/09/08 11:54:01;;;;;;;6.30;0.88;;;22.20;81.20;;;;;;5059380;28;20071;-74
2022/09/08 11:56:47;;;;;;;3.35;0.65;;;22.50;86.50;;;;;;5052313;28;20028;-74
2022/09/08 11:59:39;;;;;;;7.25;0.82;;;22.80;82.00;;;;;;5053353;28;20412;-74
2022/09/08 12:02:32;;;;;;;5.25;0.63;;;22.90;77.70;;;;;;5050652;28;20121;-74
2022/09/08 12:05:16;;;;;;;;;;;23.00;75.60;;;;;;5058723;28;20496;-74
2022/09/08 12:08:10;;;;;;;5.22;0.70;;;23.00;75.30;;;;;;5059373;28;19912;-75
2022/09/08 12:10:57;;;;;;;3.25;0.50;;;23.10;75.10;;;;;;5055513;28;20028;-75
2022/09/08 12:13:59;;;;;;;4.32;0.60;;;23.00;74.90;;;;;;5058591;28;20029;-75
2022/09/08 12:16:38;;;;;;;5.60;0.73;;;23.20;76.10;;;;;;5055652;28;20032;-75
2022/09/08 12:19:22;;;;;;;5.45;0.50;;;23.30;78.40;;;;;;5058821;28;20035;-75
2022/09/08 12:21:47;;;;;;;3.83;0.30;;;23.50;75.20;;;;;;5070239;28;20069;-72
2022/09/08 12:24:40;;;;;;;4.85;0.60;;;23.50;72.60;;;;;;5066739;28;20111;-75
2022/09/08 12:27:39;;;;;;;4.32;0.82;;;23.50;73.20;;;;;;5057070;28;20040;-75
2022/09/08 12:30:40;;;;;;;4.90;0.60;;;23.50;72.90;;;;;;5063151;28;20047;-73
2022/09/08 12:33:08;;;;;;;8.80;0.73;;;23.50;71.90;;;;;;5051500;28;20106;-72
2022/09/08 12:35:45;;;;;;;3.17;0.50;;;23.60;70.50;;;;;;5053063;28;20526;-72
2022/09/08 12:38:41;;;;;;;5.00;0.70;;;23.60;70.30;;;;;;5053164;28;20067;-73
2022/09/08 12:41:41;;;;;;;7.00;0.88;;;23.50;69.50;;;;;;5053718;28;20025;-74
2022/09/08 12:44:31;;;;;;;6.72;0.88;;;23.40;69.30;;;;;;5057606;28;20067;-75
2022/09/08 12:47:33;;;;;;;2.30;0.30;;;23.50;70.50;;;;;;5050409;28;20032;-73
2022/09/08 12:50:10;;;;;;;4.47;0.53;;;23.30;70.00;;;;;;5067509;28;20389;-73
2022/09/08 12:52:59;;;;;;;6.10;0.70;;;23.20;70.60;;;;;;5052559;28;20045;-73
2022/09/08 12:55:36;;;;;;;3.80;0.65;;;23.30;70.60;;;;;;5069866;28;20028;-73
2022/09/08 12:58:02;;;;;;;4.50;0.52;;;23.40;70.10;;;;;;5066674;28;20028;-73
2022/09/08 13:00:42;;;;;;;4.05;0.52;;;23.50;70.20;;;;;;5059532;28;20365;-73
2022/09/08 13:03:37;;;;;;;4.43;0.55;;;23.70;70.00;;;;;;5064078;28;20445;-72
2022/09/08 13:06:10;;;;;;;3.30;0.88;;;23.80;68.70;;;;;;5057339;28;20106;-73
2022/09/08 13:08:53;;;;;;;4.25;0.43;;;23.80;68.00;;;;;;5055304;28;20064;-72
2022/09/08 13:11:49;;;;;;;3.25;0.70;;;23.90;67.60;;;;;;5070278;28;20480;-73
2022/09/08 13:14:20;;;;;;;5.60;0.40;;;23.90;66.70;;;;;;5063603;28;20400;-72
2022/09/08 13:16:52;;;;;;;4.18;0.50;;;24.00;66.70;;;;;;5069688;28;20050;-73
2022/09/08 13:19:27;;;;;;;3.38;0.32;;;23.90;66.20;;;;;;5064400;28;20115;-73
2022/09/08 13:22:17;;;;;;;4.90;0.70;;;23.80;66.40;;;;;;5068762;28;20385;-73
2022/09/08 13:25:01;;;;;;;5.25;0.70;;;23.80;67.10;;;;;;5058668;28;20038;-73
2022/09/08 13:27:38;;;;;;;3.03;0.32;;;23.70;67.10;;;;;;5055919;28;20443;-71
2022/09/08 13:30:12;;;;;;;4.65;0.60;;;23.60;68.10;;;;;;5050998;28;20033;-74
2022/09/08 13:32:56;;;;;;;5.38;0.55;;;23.60;68.60;;;;;;5052271;28;20036;-73
2022/09/08 13:35:57;;;;;;;3.78;0.55;;;23.60;68.30;;;;;;5050056;28;20051;-73
2022/09/08 13:38:38;;;;;;;3.47;0.60;;;23.60;68.60;;;;;;5054430;28;20052;-73
2022/09/08 13:41:15;;;;;;;2.50;0.43;;;23.80;68.40;;;;;;5060723;28;20036;-73
2022/09/08 13:44:23;;;;;;;3.92;0.82;;;23.90;68.10;;;;;;5051477;28;20029;-74